createdAt,value
2018-06-16T00:00:13.168Z,14.85
2018-06-16T00:01:13.116Z,14.78
2018-06-16T00:02:13.072Z,14.89
2018-06-16T00:03:13.070Z,14.85
2018-06-16T00:04:12.984Z,14.85
2018-06-16T00:05:12.935Z,14.81
2018-06-16T00:06:12.888Z,14.81
2018-06-16T00:07:12.840Z,14.86
2018-06-16T00:08:12.836Z,14.82
2018-06-16T00:09:12.745Z,14.84
2018-06-16T00:10:12.698Z,14.79
2018-06-16T00:11:12.652Z,14.73
2018-06-16T00:12:12.608Z,14.85
2018-06-16T00:13:12.590Z,14.82
2018-06-16T00:14:12.546Z,14.78
2018-06-16T00:15:12.469Z,14.79
2018-06-16T00:16:12.418Z,14.72
2018-06-16T00:17:12.371Z,14.88
2018-06-16T00:18:12.328Z,14.85
2018-06-16T00:19:12.311Z,14.88
2018-06-16T00:20:12.251Z,14.92
2018-06-16T00:21:12.186Z,14.79
2018-06-16T00:22:12.137Z,14.79
2018-06-16T00:23:12.126Z,14.79
2018-06-16T00:24:12.047Z,14.66
2018-06-16T00:25:11.997Z,14.70
2018-06-16T00:26:11.951Z,14.59
2018-06-16T00:27:11.903Z,14.65
2018-06-16T00:28:11.891Z,14.62
2018-06-16T00:29:11.841Z,14.68
2018-06-16T00:30:11.766Z,14.63
2018-06-16T00:31:11.719Z,14.53
2018-06-16T00:32:11.672Z,14.55
2018-06-16T00:33:11.626Z,14.50
2018-06-16T00:34:11.609Z,14.65
2018-06-16T00:35:11.546Z,14.54
2018-06-16T00:36:11.485Z,14.50
2018-06-16T00:37:11.436Z,14.47
2018-06-16T00:38:11.390Z,14.48
2018-06-16T00:39:11.390Z,14.47
2018-06-16T00:40:11.296Z,14.51
2018-06-16T00:41:11.288Z,14.51
2018-06-16T00:42:11.203Z,14.51
2018-06-16T00:43:11.190Z,14.53
2018-06-16T00:44:11.160Z,14.50
2018-06-16T00:45:11.062Z,14.51
2018-06-16T00:46:11.018Z,14.48
2018-06-16T00:47:10.969Z,14.60
2018-06-16T00:48:10.922Z,14.48
2018-06-16T00:49:10.924Z,14.55
2018-06-16T00:50:10.829Z,14.37
2018-06-16T00:51:10.781Z,14.45
2018-06-16T00:52:10.736Z,14.43
2018-06-16T00:53:10.686Z,14.41
2018-06-16T00:54:10.681Z,14.51
2018-06-16T00:55:10.594Z,14.53
2018-06-16T00:56:10.548Z,14.55
2018-06-16T00:57:10.501Z,14.51
2018-06-16T00:58:10.452Z,14.50
2018-06-16T00:59:10.438Z,14.53
2018-06-16T01:00:10.357Z,14.51
2018-06-16T01:01:10.352Z,14.51
2018-06-16T01:02:10.271Z,14.53
2018-06-16T01:03:10.218Z,14.48
2018-06-16T01:04:10.172Z,14.54
2018-06-16T01:05:10.124Z,14.62
2018-06-16T01:06:10.109Z,14.63
2018-06-16T01:07:10.031Z,14.54
2018-06-16T01:08:10.020Z,14.59
2018-06-16T01:09:09.937Z,14.69
2018-06-16T01:10:09.890Z,14.70
2018-06-16T01:11:09.847Z,14.62
2018-06-16T01:12:09.799Z,14.58
2018-06-16T01:13:09.780Z,14.55
2018-06-16T01:14:09.701Z,14.68
2018-06-16T01:15:09.654Z,14.68
2018-06-16T01:16:09.610Z,14.62
2018-06-16T01:17:09.561Z,14.69
2018-06-16T01:18:09.553Z,14.68
2018-06-16T01:19:09.468Z,14.79
2018-06-16T01:20:09.422Z,14.79
2018-06-16T01:21:09.375Z,14.79
2018-06-16T01:22:09.356Z,14.81
2018-06-16T01:23:09.279Z,14.82
2018-06-16T01:24:09.234Z,14.86
2018-06-16T01:25:09.218Z,14.88
2018-06-16T01:26:09.138Z,14.85
2018-06-16T01:27:09.097Z,14.92
2018-06-16T01:28:09.052Z,15.00
2018-06-16T01:29:08.998Z,15.02
2018-06-16T01:30:08.984Z,15.00
2018-06-16T01:31:08.905Z,14.99
2018-06-16T01:32:08.858Z,15.06
2018-06-16T01:33:08.840Z,15.03
2018-06-16T01:34:08.765Z,15.11
2018-06-16T01:35:08.720Z,15.18
2018-06-16T01:36:08.702Z,15.11
2018-06-16T01:37:08.628Z,15.11
2018-06-16T01:38:08.577Z,15.19
2018-06-16T01:39:08.533Z,15.25
2018-06-16T01:40:08.484Z,15.28
2018-06-16T01:41:08.476Z,15.27
2018-06-16T01:42:08.395Z,15.22
2018-06-16T01:43:08.344Z,15.27
2018-06-16T01:44:08.298Z,15.28
2018-06-16T01:45:08.250Z,15.27
2018-06-16T01:46:08.237Z,15.31
2018-06-16T01:47:08.157Z,15.22
2018-06-16T01:48:08.112Z,15.24
2018-06-16T01:49:08.064Z,15.21
2018-06-16T01:50:08.050Z,15.29
2018-06-16T01:51:07.970Z,15.28
2018-06-16T01:52:07.925Z,15.25
2018-06-16T01:53:07.878Z,15.28
2018-06-16T01:54:07.829Z,15.22
2018-06-16T01:55:07.824Z,15.25
2018-06-16T01:56:07.738Z,15.22
2018-06-16T01:57:07.692Z,15.27
2018-06-16T01:58:07.646Z,15.15
2018-06-16T01:59:07.597Z,15.10
2018-06-16T02:00:07.601Z,15.04
2018-06-16T02:01:07.506Z,15.03
2018-06-16T02:02:07.458Z,14.97
2018-06-16T02:03:07.412Z,15.06
2018-06-16T02:04:07.370Z,14.97
2018-06-16T02:05:07.361Z,14.96
2018-06-16T02:06:07.275Z,15.00
2018-06-16T02:07:07.227Z,15.03
2018-06-16T02:08:07.181Z,15.02
2018-06-16T02:09:07.132Z,15.03
2018-06-16T02:10:07.121Z,15.00
2018-06-16T02:11:07.039Z,15.00
2018-06-16T02:12:07.025Z,15.00
2018-06-16T02:13:06.945Z,14.92
2018-06-16T02:14:06.901Z,15.02
2018-06-16T02:15:06.851Z,15.03
2018-06-16T02:16:06.805Z,15.04
2018-06-16T02:17:06.791Z,14.99
2018-06-16T02:18:06.712Z,14.97
2018-06-16T02:19:06.665Z,15.06
2018-06-16T02:20:06.621Z,15.06
2018-06-16T02:21:06.607Z,15.04
2018-06-16T02:22:06.569Z,15.07
2018-06-16T02:23:06.480Z,15.07
2018-06-16T02:24:06.433Z,15.04
2018-06-16T02:25:06.386Z,14.97
2018-06-16T02:26:06.340Z,15.10
2018-06-16T02:27:06.336Z,14.96
2018-06-16T02:28:06.244Z,15.04
2018-06-16T02:29:06.201Z,15.02
2018-06-16T02:30:06.153Z,15.06
2018-06-16T02:31:06.107Z,14.99
2018-06-16T02:32:06.110Z,15.09
2018-06-16T02:33:06.015Z,15.06
2018-06-16T02:34:05.966Z,15.00
2018-06-16T02:35:05.919Z,15.04
2018-06-16T02:36:05.872Z,15.06
2018-06-16T02:37:05.858Z,15.04
2018-06-16T02:38:05.780Z,15.15
2018-06-16T02:39:05.778Z,15.14
2018-06-16T02:40:05.690Z,15.04
2018-06-16T02:41:05.638Z,15.09
2018-06-16T02:42:05.593Z,15.19
2018-06-16T02:43:05.545Z,15.14
2018-06-16T02:44:05.539Z,15.17
2018-06-16T02:45:05.459Z,15.03
2018-06-16T02:46:05.407Z,15.04
2018-06-16T02:47:05.359Z,15.15
2018-06-16T02:48:05.312Z,15.17
2018-06-16T02:49:05.314Z,15.18
2018-06-16T02:50:05.288Z,15.17
2018-06-16T02:51:05.172Z,15.15
2018-06-16T02:52:05.126Z,15.17
2018-06-16T02:53:05.081Z,15.11
2018-06-16T02:54:05.062Z,15.11
2018-06-16T02:55:04.992Z,15.14
2018-06-16T02:56:04.942Z,15.17
2018-06-16T02:57:04.894Z,15.17
2018-06-16T02:58:04.846Z,15.19
2018-06-16T02:59:04.851Z,15.09
2018-06-16T03:00:04.761Z,15.03
2018-06-16T03:01:04.709Z,14.99
2018-06-16T03:02:04.660Z,15.00
2018-06-16T03:03:04.614Z,14.89
2018-06-16T03:04:04.600Z,14.89
2018-06-16T03:05:04.519Z,14.82
2018-06-16T03:06:04.513Z,14.84
2018-06-16T03:07:04.427Z,14.85
2018-06-16T03:08:04.379Z,14.82
2018-06-16T03:09:04.337Z,14.77
2018-06-16T03:10:04.317Z,14.88
2018-06-16T03:11:04.238Z,14.86
2018-06-16T03:12:04.225Z,14.84
2018-06-16T03:13:04.150Z,14.79
2018-06-16T03:14:04.132Z,14.86
2018-06-16T03:15:04.064Z,14.82
2018-06-16T03:16:04.008Z,14.88
2018-06-16T03:17:03.965Z,14.86
2018-06-16T03:18:03.912Z,14.89
2018-06-16T03:19:03.897Z,14.91
2018-06-16T03:20:03.828Z,14.86
2018-06-16T03:21:03.808Z,14.91
2018-06-16T03:22:03.727Z,14.81
2018-06-16T03:23:03.678Z,14.89
2018-06-16T03:24:03.666Z,14.88
2018-06-16T03:25:03.586Z,14.81
2018-06-16T03:26:03.540Z,14.77
2018-06-16T03:27:03.501Z,14.77
2018-06-16T03:28:03.484Z,14.73
2018-06-16T03:29:03.399Z,14.89
2018-06-16T03:30:03.352Z,14.73
2018-06-16T03:31:03.332Z,14.84
2018-06-16T03:32:03.268Z,14.85
2018-06-16T03:33:03.242Z,14.89
2018-06-16T03:34:03.170Z,14.77
2018-06-16T03:35:03.150Z,14.77
2018-06-16T03:36:03.071Z,14.91
2018-06-16T03:37:03.025Z,14.84
2018-06-16T03:38:03.009Z,14.81
2018-06-16T03:39:02.931Z,14.88
2018-06-16T03:40:02.917Z,14.78
2018-06-16T03:41:02.843Z,14.86
2018-06-16T03:42:02.792Z,14.89
2018-06-16T03:43:02.748Z,14.91
2018-06-16T03:44:02.697Z,14.86
2018-06-16T03:45:02.685Z,14.84
2018-06-16T03:46:02.606Z,15.02
2018-06-16T03:47:02.556Z,14.97
2018-06-16T03:48:02.511Z,15.04
2018-06-16T03:49:02.467Z,14.97
2018-06-16T03:50:02.457Z,15.04
2018-06-16T03:51:02.370Z,15.02
2018-06-16T03:52:02.329Z,15.02
2018-06-16T03:53:02.282Z,15.07
2018-06-16T03:54:02.232Z,15.02
2018-06-16T03:55:02.221Z,15.03
2018-06-16T03:56:02.139Z,15.00
2018-06-16T03:57:02.090Z,14.96
2018-06-16T03:58:02.043Z,14.92
2018-06-16T03:59:01.996Z,15.02
2018-06-16T04:00:01.993Z,14.94
2018-06-16T04:01:01.903Z,15.02
2018-06-16T04:02:01.855Z,14.91
2018-06-16T04:03:01.810Z,14.91
2018-06-16T04:04:01.769Z,14.96
2018-06-16T04:05:01.750Z,14.99
2018-06-16T04:06:01.700Z,14.85
2018-06-16T04:07:01.625Z,14.89
2018-06-16T04:08:01.580Z,14.96
2018-06-16T04:09:01.531Z,14.94
2018-06-16T04:10:01.485Z,15.00
2018-06-16T04:11:01.471Z,15.02
2018-06-16T04:12:01.391Z,15.09
2018-06-16T04:13:01.374Z,15.06
2018-06-16T04:14:01.295Z,15.02
2018-06-16T04:15:01.250Z,15.04
2018-06-16T04:16:01.202Z,15.07
2018-06-16T04:17:01.190Z,15.17
2018-06-16T04:18:01.108Z,15.17
2018-06-16T04:19:01.061Z,15.11
2018-06-16T04:20:01.060Z,15.15
2018-06-16T04:21:00.968Z,15.24
2018-06-16T04:22:00.918Z,15.10
2018-06-16T04:23:00.874Z,15.27
2018-06-16T04:24:00.878Z,15.28
2018-06-16T04:25:00.812Z,15.33
2018-06-16T04:26:00.742Z,15.28
2018-06-16T04:27:00.690Z,15.33
2018-06-16T04:28:00.645Z,15.37
2018-06-16T04:29:00.627Z,15.49
2018-06-16T04:30:00.547Z,15.46
2018-06-16T04:31:00.501Z,15.42
2018-06-16T04:32:00.486Z,15.46
2018-06-16T04:33:00.470Z,15.61
2018-06-16T04:34:00.362Z,15.52
2018-06-16T04:35:00.348Z,15.52
2018-06-16T04:36:00.269Z,15.58
2018-06-16T04:37:00.221Z,15.55
2018-06-16T04:38:00.209Z,15.65
2018-06-16T04:39:00.129Z,15.67
2018-06-16T04:40:00.087Z,15.72
2018-06-16T04:41:00.041Z,15.70
2018-06-16T04:42:00.031Z,15.68
2018-06-16T04:42:59.944Z,15.65
2018-06-16T04:43:59.896Z,15.82
2018-06-16T04:44:59.850Z,15.82
2018-06-16T04:45:59.837Z,15.80
2018-06-16T04:46:59.793Z,15.76
2018-06-16T04:47:59.711Z,15.80
2018-06-16T04:48:59.664Z,15.83
2018-06-16T04:49:59.622Z,15.82
2018-06-16T04:50:59.578Z,15.80
2018-06-16T04:51:59.558Z,15.94
2018-06-16T04:52:59.479Z,15.94
2018-06-16T04:53:59.435Z,16.00
2018-06-16T04:54:59.386Z,16.00
2018-06-16T04:55:59.372Z,16.01
2018-06-16T04:56:59.323Z,16.02
2018-06-16T04:57:59.249Z,15.97
2018-06-16T04:58:59.209Z,16.01
2018-06-16T04:59:59.158Z,16.04
2018-06-16T05:00:59.143Z,16.12
2018-06-16T05:01:59.067Z,16.08
2018-06-16T05:02:59.020Z,16.08
2018-06-16T05:03:59.022Z,16.15
2018-06-16T05:04:58.926Z,16.16
2018-06-16T05:05:58.882Z,16.13
2018-06-16T05:06:58.832Z,16.17
2018-06-16T05:07:58.789Z,16.17
2018-06-16T05:08:58.777Z,16.12
2018-06-16T05:09:58.696Z,16.15
2018-06-16T05:10:58.647Z,16.16
2018-06-16T05:11:58.608Z,16.28
2018-06-16T05:12:58.607Z,16.15
2018-06-16T05:13:58.511Z,16.17
2018-06-16T05:14:58.465Z,16.20
2018-06-16T05:15:58.421Z,16.17
2018-06-16T05:16:58.392Z,16.28
2018-06-16T05:17:58.410Z,16.26
2018-06-16T05:18:58.325Z,16.29
2018-06-16T05:19:58.235Z,16.29
2018-06-16T05:20:58.191Z,16.29
2018-06-16T05:21:58.185Z,16.31
2018-06-16T05:22:58.100Z,16.36
2018-06-16T05:23:58.088Z,16.33
2018-06-16T05:24:58.006Z,16.36
2018-06-16T05:25:57.961Z,16.35
2018-06-16T05:26:57.949Z,16.33
2018-06-16T05:27:57.869Z,16.38
2018-06-16T05:28:57.823Z,16.43
2018-06-16T05:29:57.776Z,16.49
2018-06-16T05:30:57.734Z,16.51
2018-06-16T05:31:57.721Z,16.57
2018-06-16T05:32:57.642Z,16.54
2018-06-16T05:33:57.593Z,16.57
2018-06-16T05:34:57.549Z,16.57
2018-06-16T05:35:57.503Z,16.61
2018-06-16T05:36:57.488Z,16.66
2018-06-16T05:37:57.419Z,16.60
2018-06-16T05:38:57.397Z,16.66
2018-06-16T05:39:57.320Z,16.75
2018-06-16T05:40:57.274Z,16.76
2018-06-16T05:41:57.245Z,16.68
2018-06-16T05:42:57.190Z,16.74
2018-06-16T05:43:57.186Z,16.83
2018-06-16T05:44:57.092Z,16.84
2018-06-16T05:45:57.048Z,16.76
2018-06-16T05:46:57.001Z,16.83
2018-06-16T05:47:56.956Z,16.81
2018-06-16T05:48:56.941Z,16.84
2018-06-16T05:49:56.874Z,16.86
2018-06-16T05:50:56.820Z,16.86
2018-06-16T05:51:56.772Z,16.91
2018-06-16T05:52:56.751Z,16.99
2018-06-16T05:53:56.742Z,16.90
2018-06-16T05:54:56.640Z,17.06
2018-06-16T05:55:56.590Z,17.11
2018-06-16T05:56:56.580Z,17.14
2018-06-16T05:57:56.500Z,17.14
2018-06-16T05:58:56.485Z,17.22
2018-06-16T05:59:56.411Z,17.27
2018-06-16T06:00:56.396Z,17.30
2018-06-16T06:01:56.363Z,17.29
2018-06-16T06:02:56.322Z,17.41
2018-06-16T06:03:56.273Z,17.46
2018-06-16T06:04:56.187Z,17.48
2018-06-16T06:05:56.139Z,17.39
2018-06-16T06:06:56.133Z,17.45
2018-06-16T06:07:56.050Z,17.48
2018-06-16T06:08:56.005Z,17.45
2018-06-16T06:09:55.960Z,17.54
2018-06-16T06:10:55.915Z,17.51
2018-06-16T06:11:55.923Z,17.56
2018-06-16T06:12:55.824Z,17.65
2018-06-16T06:13:55.783Z,17.65
2018-06-16T06:14:55.737Z,17.72
2018-06-16T06:15:55.688Z,17.78
2018-06-16T06:16:55.680Z,17.79
2018-06-16T06:17:55.598Z,17.79
2018-06-16T06:18:55.553Z,17.83
2018-06-16T06:19:55.508Z,17.90
2018-06-16T06:20:55.464Z,17.87
2018-06-16T06:21:55.451Z,17.98
2018-06-16T06:22:55.375Z,18.01
2018-06-16T06:23:55.330Z,18.08
2018-06-16T06:24:55.286Z,18.10
2018-06-16T06:25:55.271Z,18.19
2018-06-16T06:26:55.200Z,18.16
2018-06-16T06:27:55.152Z,18.19
2018-06-16T06:28:55.155Z,18.20
2018-06-16T06:29:55.062Z,18.34
2018-06-16T06:30:55.017Z,18.33
2018-06-16T06:31:54.975Z,18.28
2018-06-16T06:32:54.925Z,18.40
2018-06-16T06:33:54.915Z,18.43
2018-06-16T06:34:54.872Z,18.43
2018-06-16T06:35:54.797Z,18.44
2018-06-16T06:36:54.789Z,18.52
2018-06-16T06:37:54.704Z,18.52
2018-06-16T06:38:54.662Z,18.59
2018-06-16T06:39:54.616Z,18.58
2018-06-16T06:40:54.572Z,18.65
2018-06-16T06:41:54.577Z,18.66
2018-06-16T06:42:54.485Z,18.73
2018-06-16T06:43:54.443Z,18.83
2018-06-16T06:44:54.397Z,18.78
2018-06-16T06:45:54.352Z,18.75
2018-06-16T06:46:54.351Z,18.84
2018-06-16T06:47:54.262Z,18.89
2018-06-16T06:48:54.233Z,18.93
2018-06-16T06:49:54.176Z,18.92
2018-06-16T06:50:54.129Z,18.98
2018-06-16T06:51:54.119Z,18.98
2018-06-16T06:52:54.043Z,18.96
2018-06-16T06:53:53.999Z,19.11
2018-06-16T06:54:53.992Z,19.04
2018-06-16T06:55:53.911Z,19.14
2018-06-16T06:56:53.867Z,19.11
2018-06-16T06:57:53.901Z,19.19
2018-06-16T06:58:53.782Z,19.27
2018-06-16T06:59:53.737Z,19.24
2018-06-16T07:00:53.689Z,19.37
2018-06-16T07:01:53.679Z,19.36
2018-06-16T07:02:53.603Z,19.52
2018-06-16T07:03:53.618Z,19.49
2018-06-16T07:04:53.519Z,19.55
2018-06-16T07:05:53.475Z,19.48
2018-06-16T07:06:53.476Z,19.63
2018-06-16T07:07:53.387Z,19.63
2018-06-16T07:08:53.341Z,19.64
2018-06-16T07:09:53.299Z,19.71
2018-06-16T07:10:53.309Z,19.73
2018-06-16T07:11:53.266Z,19.84
2018-06-16T07:12:53.172Z,19.81
2018-06-16T07:13:53.122Z,19.89
2018-06-16T07:14:53.081Z,19.91
2018-06-16T07:15:53.040Z,19.89
2018-06-16T07:16:53.029Z,20.03
2018-06-16T07:17:52.951Z,19.99
2018-06-16T07:18:52.949Z,20.11
2018-06-16T07:19:52.864Z,20.28
2018-06-16T07:20:52.821Z,20.25
2018-06-16T07:21:52.778Z,20.28
2018-06-16T07:22:52.733Z,20.31
2018-06-16T07:23:52.730Z,20.34
2018-06-16T07:24:52.659Z,20.39
2018-06-16T07:25:52.607Z,20.32
2018-06-16T07:26:52.565Z,20.36
2018-06-16T07:27:52.520Z,20.37
2018-06-16T07:28:52.512Z,20.40
2018-06-16T07:29:52.434Z,20.40
2018-06-16T07:30:52.391Z,20.32
2018-06-16T07:31:52.350Z,20.28
2018-06-16T07:32:52.345Z,20.36
2018-06-16T07:33:52.264Z,20.31
2018-06-16T07:34:52.220Z,20.28
2018-06-16T07:35:52.218Z,20.24
2018-06-16T07:36:52.134Z,20.25
2018-06-16T07:37:52.092Z,20.36
2018-06-16T07:38:52.092Z,20.29
2018-06-16T07:39:52.015Z,20.24
2018-06-16T07:40:52.003Z,20.14
2018-06-16T07:41:51.922Z,20.02
2018-06-16T07:42:51.880Z,20.04
2018-06-16T07:43:51.847Z,19.96
2018-06-16T07:44:51.792Z,19.91
2018-06-16T07:45:51.783Z,19.89
2018-06-16T07:46:51.742Z,19.94
2018-06-16T07:47:51.670Z,19.84
2018-06-16T07:48:51.631Z,19.96
2018-06-16T07:49:51.580Z,19.92
2018-06-16T07:50:51.539Z,20.04
2018-06-16T07:51:51.529Z,20.09
2018-06-16T07:52:51.493Z,20.25
2018-06-16T07:53:51.419Z,20.39
2018-06-16T07:54:51.368Z,20.34
2018-06-16T07:55:51.344Z,20.25
2018-06-16T07:56:51.341Z,20.41
2018-06-16T07:57:51.279Z,20.25
2018-06-16T07:58:51.203Z,20.28
2018-06-16T07:59:51.158Z,20.34
2018-06-16T08:00:51.113Z,20.36
2018-06-16T08:01:51.074Z,20.24
2018-06-16T08:02:51.114Z,20.22
2018-06-16T08:03:50.988Z,20.18
2018-06-16T08:04:50.941Z,20.22
2018-06-16T08:05:50.909Z,20.28
2018-06-16T08:06:50.859Z,20.24
2018-06-16T08:07:50.847Z,20.25
2018-06-16T08:08:50.771Z,20.24
2018-06-16T08:09:50.729Z,20.25
2018-06-16T08:10:50.731Z,20.10
2018-06-16T08:11:50.644Z,20.11
2018-06-16T08:12:50.646Z,20.13
2018-06-16T08:13:50.557Z,20.22
2018-06-16T08:14:50.514Z,20.25
2018-06-16T08:15:50.508Z,20.36
2018-06-16T08:16:50.431Z,20.40
2018-06-16T08:17:50.412Z,20.22
2018-06-16T08:18:50.345Z,20.21
2018-06-16T08:19:50.333Z,20.34
2018-06-16T08:20:50.258Z,20.32
2018-06-16T08:21:50.224Z,20.22
2018-06-16T08:22:50.208Z,20.36
2018-06-16T08:23:50.131Z,20.24
2018-06-16T08:24:50.125Z,20.21
2018-06-16T08:25:50.049Z,20.36
2018-06-16T08:26:50.002Z,20.41
2018-06-16T08:27:49.961Z,20.40
2018-06-16T08:28:49.957Z,20.48
2018-06-16T08:29:49.873Z,20.44
2018-06-16T08:30:49.832Z,20.62
2018-06-16T08:31:49.793Z,20.72
2018-06-16T08:32:49.747Z,20.69
2018-06-16T08:33:49.735Z,20.66
2018-06-16T08:34:49.803Z,20.59
2018-06-16T08:35:49.620Z,20.59
2018-06-16T08:36:49.577Z,20.67
2018-06-16T08:37:49.536Z,20.77
2018-06-16T08:38:49.530Z,20.74
2018-06-16T08:39:49.449Z,20.81
2018-06-16T08:40:49.405Z,20.84
2018-06-16T08:41:49.394Z,20.85
2018-06-16T08:42:49.322Z,20.97
2018-06-16T08:43:49.281Z,21.00
2018-06-16T08:44:49.239Z,20.99
2018-06-16T08:45:49.230Z,20.82
2018-06-16T08:46:49.150Z,20.80
2018-06-16T08:47:49.108Z,20.80
2018-06-16T08:48:49.065Z,20.90
2018-06-16T08:49:49.024Z,20.88
2018-06-16T08:50:49.020Z,21.05
2018-06-16T08:51:48.945Z,21.00
2018-06-16T08:52:48.897Z,20.97
2018-06-16T08:53:49.612Z,21.00
2018-06-16T08:54:48.837Z,21.02
2018-06-16T08:55:48.805Z,21.02
2018-06-16T08:56:48.730Z,21.11
2018-06-16T08:57:48.716Z,21.20
2018-06-16T08:58:48.644Z,21.27
2018-06-16T08:59:48.635Z,21.30
2018-06-16T09:00:48.560Z,21.35
2018-06-16T09:01:48.515Z,21.39
2018-06-16T09:02:48.511Z,21.45
2018-06-16T09:03:48.434Z,21.39
2018-06-16T09:04:48.390Z,21.40
2018-06-16T09:05:48.349Z,21.39
2018-06-16T09:06:48.357Z,21.46
2018-06-16T09:07:48.265Z,21.51
2018-06-16T09:08:48.228Z,21.70
2018-06-16T09:09:48.183Z,21.72
2018-06-16T09:10:48.140Z,21.80
2018-06-16T09:11:48.130Z,21.92
2018-06-16T09:12:48.056Z,21.99
2018-06-16T09:13:48.016Z,22.06
2018-06-16T09:14:47.994Z,22.15
2018-06-16T09:15:47.968Z,22.06
2018-06-16T09:16:47.892Z,22.11
2018-06-16T09:17:47.849Z,22.08
2018-06-16T09:18:47.814Z,22.04
2018-06-16T09:19:47.765Z,21.85
2018-06-16T09:20:47.753Z,21.77
2018-06-16T09:21:47.682Z,21.79
2018-06-16T09:22:47.642Z,21.76
2018-06-16T09:23:47.602Z,21.82
2018-06-16T09:24:47.558Z,21.95
2018-06-16T09:25:47.549Z,21.98
2018-06-16T09:26:47.479Z,22.00
2018-06-16T09:27:47.436Z,22.14
2018-06-16T09:28:47.395Z,22.04
2018-06-16T09:29:47.384Z,22.00
2018-06-16T09:30:47.340Z,22.06
2018-06-16T09:31:47.381Z,22.10
2018-06-16T09:32:47.230Z,22.14
2018-06-16T09:33:47.190Z,22.04
2018-06-16T09:34:47.147Z,22.11
2018-06-16T09:35:47.109Z,22.08
2018-06-16T09:36:47.107Z,21.98
2018-06-16T09:37:47.022Z,22.14
2018-06-16T09:38:46.989Z,22.20
2018-06-16T09:39:46.943Z,22.50
2018-06-16T09:40:46.900Z,22.50
2018-06-16T09:41:46.911Z,22.48
2018-06-16T09:42:46.820Z,22.54
2018-06-16T09:43:46.781Z,22.73
2018-06-16T09:44:46.736Z,22.80
2018-06-16T09:45:46.701Z,22.78
2018-06-16T09:46:46.708Z,22.75
2018-06-16T09:47:46.621Z,22.76
2018-06-16T09:48:46.572Z,22.88
2018-06-16T09:49:46.533Z,23.08
2018-06-16T09:50:46.492Z,23.23
2018-06-16T09:51:46.489Z,23.36
2018-06-16T09:52:46.411Z,23.43
2018-06-16T09:53:46.371Z,23.48
2018-06-16T09:54:46.331Z,23.62
2018-06-16T09:55:46.329Z,23.73
2018-06-16T09:56:46.256Z,23.77
2018-06-16T09:57:46.212Z,23.43
2018-06-16T09:58:46.169Z,23.40
2018-06-16T09:59:46.173Z,23.46
2018-06-16T10:00:46.089Z,23.61
2018-06-16T10:01:46.055Z,23.74
2018-06-16T10:02:46.012Z,23.80
2018-06-16T10:03:45.973Z,23.98
2018-06-16T10:04:45.963Z,23.96
2018-06-16T10:05:45.891Z,24.01
2018-06-16T10:06:45.884Z,23.98
2018-06-16T10:07:45.811Z,24.08
2018-06-16T10:08:45.772Z,24.26
2018-06-16T10:09:45.729Z,24.30
2018-06-16T10:10:45.723Z,24.42
2018-06-16T10:11:45.650Z,24.58
2018-06-16T10:12:45.613Z,24.76
2018-06-16T10:13:45.570Z,24.60
2018-06-16T10:14:45.566Z,24.70
2018-06-16T10:15:45.492Z,24.70
2018-06-16T10:16:45.487Z,24.80
2018-06-16T10:17:45.412Z,24.98
2018-06-16T10:18:45.374Z,25.07
2018-06-16T10:19:45.332Z,24.98
2018-06-16T10:20:45.327Z,25.03
2018-06-16T10:21:45.291Z,24.93
2018-06-16T10:22:45.219Z,24.76
2018-06-16T10:23:45.178Z,24.57
2018-06-16T10:24:45.135Z,24.33
2018-06-16T10:25:45.097Z,23.78
2018-06-16T10:26:45.089Z,23.59
2018-06-16T10:27:45.026Z,23.47
2018-06-16T10:28:44.977Z,23.50
2018-06-16T10:29:44.938Z,23.43
2018-06-16T10:30:44.903Z,23.34
2018-06-16T10:31:44.894Z,23.36
2018-06-16T10:32:44.857Z,23.40
2018-06-16T10:33:44.778Z,23.32
2018-06-16T10:34:44.742Z,23.40
2018-06-16T10:35:44.703Z,23.46
2018-06-16T10:36:44.661Z,23.46
2018-06-16T10:37:44.664Z,23.58
2018-06-16T10:38:44.581Z,23.58
2018-06-16T10:39:44.544Z,23.61
2018-06-16T10:40:44.504Z,23.58
2018-06-16T10:41:44.463Z,23.54
2018-06-16T10:42:44.457Z,23.39
2018-06-16T10:43:44.423Z,23.40
2018-06-16T10:44:44.344Z,23.39
2018-06-16T10:45:44.308Z,23.50
2018-06-16T10:46:44.265Z,23.63
2018-06-16T10:47:44.225Z,23.73
2018-06-16T10:48:44.223Z,23.63
2018-06-16T10:49:44.143Z,23.62
2018-06-16T10:50:44.105Z,23.61
2018-06-16T10:51:44.064Z,23.48
2018-06-16T10:52:44.024Z,23.51
2018-06-16T10:53:44.024Z,23.65
2018-06-16T10:54:43.948Z,23.76
2018-06-16T10:55:43.908Z,23.74
2018-06-16T10:56:43.866Z,23.51
2018-06-16T10:57:43.824Z,23.32
2018-06-16T10:58:43.820Z,23.24
2018-06-16T10:59:43.746Z,23.34
2018-06-16T11:00:43.706Z,23.47
2018-06-16T11:01:43.668Z,23.55
2018-06-16T11:02:43.626Z,23.59
2018-06-16T11:03:43.628Z,23.54
2018-06-16T11:04:43.546Z,23.58
2018-06-16T11:05:43.540Z,23.31
2018-06-16T11:06:43.469Z,23.43
2018-06-16T11:07:43.427Z,23.76
2018-06-16T11:08:43.387Z,24.02
2018-06-16T11:09:43.392Z,24.13
2018-06-16T11:10:43.310Z,24.29
2018-06-16T11:11:43.276Z,24.45
2018-06-16T11:12:43.230Z,24.69
2018-06-16T11:13:43.188Z,24.98
2018-06-16T11:14:43.188Z,24.98
2018-06-16T11:15:43.161Z,24.57
2018-06-16T11:16:43.070Z,24.35
2018-06-16T11:17:43.030Z,24.30
2018-06-16T11:18:42.999Z,24.30
2018-06-16T11:19:42.954Z,24.35
2018-06-16T11:20:42.957Z,24.48
2018-06-16T11:21:42.873Z,24.70
2018-06-16T11:22:42.836Z,24.80
2018-06-16T11:23:42.795Z,25.01
2018-06-16T11:24:42.758Z,25.06
2018-06-16T11:25:42.759Z,25.17
2018-06-16T11:26:42.676Z,25.36
2018-06-16T11:27:42.641Z,25.43
2018-06-16T11:28:42.598Z,25.62
2018-06-16T11:29:42.566Z,25.72
2018-06-16T11:30:42.565Z,25.73
2018-06-16T11:31:42.480Z,25.78
2018-06-16T11:32:42.437Z,25.81
2018-06-16T11:33:42.404Z,25.81
2018-06-16T11:34:42.359Z,25.93
2018-06-16T11:35:42.354Z,26.13
2018-06-16T11:36:42.288Z,26.23
2018-06-16T11:37:42.247Z,26.37
2018-06-16T11:38:42.250Z,26.47
2018-06-16T11:39:42.201Z,26.40
2018-06-16T11:40:42.129Z,26.10
2018-06-16T11:41:42.129Z,26.13
2018-06-16T11:42:42.051Z,26.03
2018-06-16T11:43:42.013Z,26.21
2018-06-16T11:44:41.993Z,26.41
2018-06-16T11:45:41.933Z,26.66
2018-06-16T11:46:42.059Z,26.80
2018-06-16T11:47:41.856Z,26.55
2018-06-16T11:48:41.876Z,26.47
2018-06-16T11:49:41.783Z,26.45
2018-06-16T11:50:41.743Z,26.58
2018-06-16T11:51:41.734Z,26.70
2018-06-16T11:52:41.671Z,26.93
2018-06-16T11:53:41.627Z,27.02
2018-06-16T11:54:41.589Z,27.10
2018-06-16T11:55:41.584Z,27.08
2018-06-16T11:56:41.511Z,27.08
2018-06-16T11:57:41.533Z,27.12
2018-06-16T11:58:41.461Z,27.14
2018-06-16T11:59:41.397Z,27.17
2018-06-16T12:00:41.396Z,27.22
2018-06-16T12:01:41.322Z,27.26
2018-06-16T12:02:41.284Z,27.10
2018-06-16T12:03:41.248Z,27.11
2018-06-16T12:04:41.242Z,27.11
2018-06-16T12:05:41.173Z,27.32
2018-06-16T12:06:41.164Z,27.17
2018-06-16T12:07:41.091Z,27.15
2018-06-16T12:08:41.056Z,27.20
2018-06-16T12:09:41.051Z,27.08
2018-06-16T12:10:40.981Z,26.68
2018-06-16T12:11:40.946Z,26.38
2018-06-16T12:12:40.937Z,26.21
2018-06-16T12:13:40.874Z,26.21
2018-06-16T12:14:40.876Z,26.10
2018-06-16T12:15:40.792Z,26.02
2018-06-16T12:16:40.760Z,25.91
2018-06-16T12:17:40.719Z,26.06
2018-06-16T12:18:40.679Z,26.28
2018-06-16T12:19:40.673Z,26.47
2018-06-16T12:20:40.601Z,26.59
2018-06-16T12:21:40.567Z,26.62
2018-06-16T12:22:40.524Z,26.80
2018-06-16T12:23:40.494Z,26.90
2018-06-16T12:24:40.524Z,26.97
2018-06-16T12:25:40.411Z,27.05
2018-06-16T12:26:40.377Z,26.70
2018-06-16T12:27:40.338Z,26.37
2018-06-16T12:28:40.316Z,26.43
2018-06-16T12:29:40.371Z,26.28
2018-06-16T12:30:40.225Z,26.31
2018-06-16T12:31:40.191Z,26.31
2018-06-16T12:32:40.154Z,26.37
2018-06-16T12:33:40.112Z,26.28
2018-06-16T12:34:40.100Z,26.16
2018-06-16T12:35:40.057Z,25.90
2018-06-16T12:36:39.992Z,25.81
2018-06-16T12:37:39.986Z,25.88
2018-06-16T12:38:39.919Z,25.90
2018-06-16T12:39:39.878Z,25.80
2018-06-16T12:40:39.886Z,25.73
2018-06-16T12:41:39.801Z,25.63
2018-06-16T12:42:39.763Z,25.78
2018-06-16T12:43:39.728Z,25.93
2018-06-16T12:44:39.751Z,26.23
2018-06-16T12:45:39.681Z,26.38
2018-06-16T12:46:39.610Z,26.56
2018-06-16T12:47:39.572Z,26.68
2018-06-16T12:48:39.567Z,26.75
2018-06-16T12:49:39.498Z,26.90
2018-06-16T12:50:39.459Z,27.03
2018-06-16T12:51:39.422Z,27.22